Reno, Pennsylvania
Current Conditions -  °F | °C
As of 5:55 AM on Sunday 26 Oct 2014 (Local Time) from KFKL Reporting Station
Clear Clear  
Wind Chill: 37°   Ceiling: Unl
Heat Index: 43°   Visibility: 10mi
Dew Point: 34°   Wind: 9mph
Humidity: 70%   Direction: 270°W
Pressure: 29.8"   Gusts: NA
Location:  41.41°N, 79.75°W
Report Text: KFKL 260955Z 27008KT 10SM CLR 06/01 A2980 RMK AO1
Loading
Personal Weather Stations






























Interactive Weather Map
Tropical Storm Tracking
New forecast layout! Learn more

10-Day Weather Forecast

Advertisements
Track Severe Weather on mobile